Accueil
METAR-TAF:

METAR-TAF

Aéroports :

P11-b, Pays-Bas

Plate-forme pétrolière

latitude: 52-21-36N, longitude: 3-20-30E, altitude: 24 m

Observation

Le bulletin a été fait il y a 19 minutes, à 09:55 UTC
Vent 19 kt de est
Température 3°C
Humidité 60%
Pression 1026 hPa
Visibilité 10 km ou plus
Quelques nuages à une hauteur de 2400 ft

METAR: EHPG 220955Z AUTO 08019KT 9999 FEW024 03/M04 Q1026 W///H///

Heure: 11:14 (10:14 UTC)


TAF: absent

Observations et prévisions météorologiques de plus de 4000 aéroports (messages METAR et TAF).

Les stations disponibles sont représentées par des disques jaunes et rouges sur la carte.

Passer la souris dessus pour voir le nom de la station.

Cliquer dessus pour voir les observations et prévisions météorologiques.

Pour changer de carte: cliquez sur les boutons verts avec une croix noire pour zoomer, sur le bouton vert avec un tiret pour effectuer un zoom arrière, ou sur les flèches vertes pour les cartes adjacentes.


METAR-TAF: